createdAt,value
2023-05-06T00:00:01.530Z,96648.22
2023-05-06T00:02:03.011Z,96655.00
2023-05-06T00:04:04.914Z,96649.44
2023-05-06T00:06:06.652Z,96646.78
2023-05-06T00:08:09.477Z,96646.56
2023-05-06T00:10:10.984Z,96635.25
2023-05-06T00:12:12.578Z,96643.69
2023-05-06T00:14:14.085Z,96634.63
2023-05-06T00:16:15.597Z,96637.09
2023-05-06T00:18:17.074Z,96629.47
2023-05-06T00:20:18.781Z,96639.13
2023-05-06T00:22:20.262Z,96630.06
2023-05-06T00:24:23.112Z,96638.72
2023-05-06T00:26:24.704Z,96628.44
2023-05-06T00:28:26.263Z,96631.72
2023-05-06T00:30:28.018Z,96638.31
2023-05-06T00:32:29.517Z,96647.56
2023-05-06T00:34:31.009Z,96648.59
2023-05-06T00:36:32.533Z,96642.41
2023-05-06T00:38:34.027Z,96639.53
2023-05-06T00:40:37.108Z,96635.78
2023-05-06T00:42:38.591Z,96633.56
2023-05-06T00:44:40.094Z,96633.56
2023-05-06T00:46:42.886Z,96637.84
2023-05-06T00:48:44.585Z,96631.69
2023-05-06T00:50:46.110Z,96639.91
2023-05-06T00:52:48.489Z,96634.56
2023-05-06T00:54:50.060Z,96629.63
2023-05-06T00:56:53.413Z,96635.38
2023-05-06T00:58:54.964Z,96631.47
2023-05-06T01:00:56.546Z,96627.97
2023-05-06T01:02:58.202Z,96633.31
2023-05-06T01:04:59.989Z,96628.78
2023-05-06T01:07:08.179Z,96634.94
2023-05-06T01:09:18.511Z,96629.81
2023-05-06T01:11:29.658Z,96630.63
2023-05-06T01:13:39.301Z,96627.53
2023-05-06T01:15:45.158Z,96637.00
2023-05-06T01:17:49.320Z,96630.00
2023-05-06T01:19:52.234Z,96634.09
2023-05-06T01:21:55.800Z,96630.59
2023-05-06T01:23:58.754Z,96626.50
2023-05-06T01:26:00.272Z,96626.06
2023-05-06T01:28:01.744Z,96625.25
2023-05-06T01:30:03.664Z,96627.47
2023-05-06T01:32:20.083Z,96631.38
2023-05-06T01:34:33.508Z,96617.56
2023-05-06T01:36:44.061Z,96634.25
2023-05-06T01:38:52.645Z,96626.25
2023-05-06T01:40:57.754Z,96637.16
2023-05-06T01:43:01.794Z,96632.03
2023-05-06T01:45:06.998Z,96638.59
2023-05-06T01:47:10.132Z,96639.84
2023-05-06T01:49:14.702Z,96638.59
2023-05-06T01:51:16.185Z,96635.75
2023-05-06T01:53:17.750Z,96635.75
2023-05-06T01:55:19.454Z,96634.91
2023-05-06T01:57:22.312Z,96646.44
2023-05-06T01:59:23.831Z,96642.31
2023-05-06T02:01:25.400Z,96640.88
2023-05-06T02:03:27.022Z,96628.31
2023-05-06T02:05:28.587Z,96628.31
2023-05-06T02:07:30.056Z,96629.56
2023-05-06T02:09:31.541Z,96625.47
2023-05-06T02:11:33.066Z,96624.22
2023-05-06T02:13:35.923Z,96634.06
2023-05-06T02:15:37.436Z,96630.38
2023-05-06T02:17:38.950Z,96630.38
2023-05-06T02:19:40.441Z,96625.03
2023-05-06T02:21:41.934Z,96624.81
2023-05-06T02:23:43.679Z,96636.13
2023-05-06T02:25:45.179Z,96627.09
2023-05-06T02:27:46.723Z,96629.53
2023-05-06T02:29:49.594Z,96629.53
2023-05-06T02:31:51.165Z,96635.72
2023-05-06T02:33:52.671Z,96625.84
2023-05-06T02:35:54.268Z,96633.66
2023-05-06T02:37:55.788Z,96629.53
2023-05-06T02:39:57.261Z,96633.63
2023-05-06T02:41:58.734Z,96624.16
2023-05-06T02:44:00.195Z,96622.72
2023-05-06T02:46:03.128Z,96633.41
2023-05-06T02:48:05.191Z,96625.41
2023-05-06T02:50:07.212Z,96623.31
2023-05-06T02:52:08.889Z,96627.44
2023-05-06T02:54:10.346Z,96625.41
2023-05-06T02:56:11.824Z,96621.91
2023-05-06T02:58:13.292Z,96627.84
2023-05-06T03:00:15.301Z,96622.69
2023-05-06T03:02:18.130Z,96624.94
2023-05-06T03:04:19.650Z,96610.97
2023-05-06T03:06:21.178Z,96621.69
2023-05-06T03:08:22.679Z,96621.28
2023-05-06T03:10:24.188Z,96617.56
2023-05-06T03:12:25.658Z,96620.44
2023-05-06T03:14:27.145Z,96612.19
2023-05-06T03:16:28.804Z,96614.81
2023-05-06T03:18:31.658Z,96616.88
2023-05-06T03:20:34.349Z,96614.22
2023-05-06T03:22:35.914Z,96606.38
2023-05-06T03:24:37.418Z,96606.03
2023-05-06T03:26:39.063Z,96612.19
2023-05-06T03:28:43.165Z,96610.72
2023-05-06T03:30:44.694Z,96617.06
2023-05-06T03:32:47.085Z,96609.44
2023-05-06T03:34:49.933Z,96604.28
2023-05-06T03:36:51.399Z,96615.81
2023-05-06T03:38:52.869Z,96608.38
2023-05-06T03:40:54.357Z,96612.31
2023-05-06T03:42:55.809Z,96613.72
2023-05-06T03:44:57.292Z,96611.69
2023-05-06T03:46:58.759Z,96608.13
2023-05-06T03:49:00.275Z,96608.72
2023-05-06T03:51:03.194Z,96609.94
2023-05-06T03:53:05.100Z,96605.00
2023-05-06T03:55:07.356Z,96600.81
2023-05-06T03:57:08.900Z,96613.56
2023-05-06T03:59:10.467Z,96599.78
2023-05-06T04:01:11.985Z,96609.88
2023-05-06T04:03:13.563Z,96608.47
2023-05-06T04:05:15.346Z,96606.19
2023-05-06T04:07:18.161Z,96608.25
2023-05-06T04:09:19.647Z,96602.91
2023-05-06T04:11:21.148Z,96605.56
2023-05-06T04:13:22.726Z,96609.88
2023-05-06T04:15:24.245Z,96613.81
2023-05-06T04:17:25.890Z,96610.72
2023-05-06T04:19:27.371Z,96610.91
2023-05-06T04:21:29.040Z,96606.97
2023-05-06T04:23:32.255Z,96606.78
2023-05-06T04:25:33.744Z,96592.53
2023-05-06T04:27:35.376Z,96613.09
2023-05-06T04:29:36.919Z,96617.19
2023-05-06T04:31:38.462Z,96611.47
2023-05-06T04:33:40.096Z,96607.69
2023-05-06T04:35:49.530Z,96586.22
2023-05-06T04:37:51.199Z,96622.53
2023-05-06T04:39:54.155Z,96628.88
2023-05-06T04:41:55.718Z,96626.84
2023-05-06T04:43:57.165Z,96622.94
2023-05-06T04:45:58.673Z,96622.88
2023-05-06T04:48:00.290Z,96619.81
2023-05-06T04:50:01.912Z,96627.63
2023-05-06T04:52:03.677Z,96635.66
2023-05-06T04:54:05.347Z,96617.75
2023-05-06T04:56:08.588Z,96631.94
2023-05-06T04:58:10.125Z,96632.63
2023-05-06T05:00:12.326Z,96620.50
2023-05-06T05:02:13.938Z,96634.06
2023-05-06T05:04:15.497Z,96633.69
2023-05-06T05:06:17.017Z,96624.56
2023-05-06T05:08:18.562Z,96644.75
2023-05-06T05:10:20.149Z,96629.91
2023-05-06T05:12:22.951Z,96649.66
2023-05-06T05:14:24.497Z,96650.25
2023-05-06T05:16:26.040Z,96651.47
2023-05-06T05:18:27.584Z,96639.97
2023-05-06T05:20:29.105Z,96636.03
2023-05-06T05:22:30.610Z,96652.13
2023-05-06T05:24:32.095Z,96647.66
2023-05-06T05:26:33.744Z,96652.59
2023-05-06T05:28:36.685Z,96647.94
2023-05-06T05:30:38.170Z,96637.16
2023-05-06T05:32:39.682Z,96612.22
2023-05-06T05:34:41.171Z,96656.50
2023-05-06T05:36:42.642Z,96653.22
2023-05-06T05:38:44.142Z,96663.28
2023-05-06T05:40:45.614Z,96656.47
2023-05-06T05:42:47.070Z,96621.41
2023-05-06T05:44:49.912Z,96663.91
2023-05-06T05:46:51.656Z,96668.44
2023-05-06T05:48:53.294Z,96647.16
2023-05-06T05:50:54.826Z,96662.63
2023-05-06T05:52:56.338Z,96650.97
2023-05-06T05:54:57.920Z,96654.50
2023-05-06T05:56:59.498Z,96643.16
2023-05-06T05:59:01.181Z,96666.03
2023-05-06T06:01:04.167Z,96659.88
2023-05-06T06:03:05.803Z,96666.69
2023-05-06T06:05:08.155Z,96663.41
2023-05-06T06:07:09.906Z,96667.47
2023-05-06T06:09:11.393Z,96663.53
2023-05-06T06:11:12.964Z,96670.97
2023-05-06T06:13:14.597Z,96666.22
2023-05-06T06:15:16.268Z,96666.69
2023-05-06T06:17:19.201Z,96676.59
2023-05-06T06:19:20.712Z,96673.09
2023-05-06T06:21:22.214Z,96671.50
2023-05-06T06:23:23.762Z,96671.44
2023-05-06T06:25:25.272Z,96673.34
2023-05-06T06:27:26.784Z,96667.97
2023-05-06T06:29:28.568Z,96648.22
2023-05-06T06:31:30.139Z,96671.88
2023-05-06T06:33:33.048Z,96676.22
2023-05-06T06:35:34.518Z,96669.41
2023-05-06T06:37:36.025Z,96679.09
2023-05-06T06:39:37.887Z,96689.41
2023-05-06T06:41:39.620Z,96682.81
2023-05-06T06:43:41.132Z,96684.44
2023-05-06T06:45:46.959Z,96681.56
2023-05-06T06:47:48.520Z,96679.31
2023-05-06T06:49:51.421Z,96680.34
2023-05-06T06:51:53.106Z,96667.97
2023-05-06T06:53:54.594Z,96667.56
2023-05-06T06:55:56.085Z,96670.44
2023-05-06T06:57:57.609Z,96674.75
2023-05-06T06:59:59.128Z,96674.16
2023-05-06T07:02:02.345Z,96669.63
2023-05-06T07:04:06.546Z,96670.03
2023-05-06T07:06:10.029Z,96683.00
2023-05-06T07:08:11.521Z,96678.47
2023-05-06T07:10:13.278Z,96672.72
2023-05-06T07:12:14.762Z,96672.94
2023-05-06T07:14:16.491Z,96686.94
2023-05-06T07:16:18.019Z,96686.28
2023-05-06T07:18:19.605Z,96678.59
2023-05-06T07:22:48.724Z,96667.81
2023-05-06T07:24:50.180Z,96685.41
2023-05-06T07:26:51.643Z,96674.31
2023-05-06T07:28:53.446Z,96693.59
2023-05-06T07:30:54.991Z,96690.63
2023-05-06T07:32:56.655Z,96690.19
2023-05-06T07:34:58.224Z,96691.91
2023-05-06T07:36:59.809Z,96695.16
2023-05-06T07:39:02.666Z,96702.84
2023-05-06T07:41:04.283Z,96681.81
2023-05-06T07:43:05.780Z,96698.13
2023-05-06T07:45:08.277Z,96692.34
2023-05-06T07:47:10.047Z,96700.22
2023-05-06T07:49:11.656Z,96695.47
2023-05-06T07:51:13.131Z,96706.13
2023-05-06T07:53:14.775Z,96702.72
2023-05-06T07:55:17.667Z,96701.59
2023-05-06T07:57:19.303Z,96703.38
2023-05-06T07:59:20.807Z,96702.81
2023-05-06T08:01:22.328Z,96701.91
2023-05-06T08:03:24.235Z,96702.28
2023-05-06T08:05:25.902Z,96700.16
2023-05-06T08:07:27.404Z,96689.94
2023-05-06T08:09:28.924Z,96707.56
2023-05-06T08:11:31.786Z,96663.44
2023-05-06T08:13:33.328Z,96707.59
2023-05-06T08:15:35.055Z,96705.72
2023-05-06T08:17:36.655Z,96695.34
2023-05-06T08:19:38.190Z,96697.50
2023-05-06T08:21:39.672Z,96706.13
2023-05-06T08:23:41.164Z,96702.69
2023-05-06T08:25:42.715Z,96699.34
2023-05-06T08:27:45.822Z,96697.94
2023-05-06T08:29:50.897Z,96705.28
2023-05-06T08:31:52.426Z,96701.75
2023-05-06T08:33:54.738Z,96696.31
2023-05-06T08:36:00.877Z,96718.22
2023-05-06T08:38:02.372Z,96707.28
2023-05-06T08:40:04.689Z,96703.59
2023-05-06T08:42:09.985Z,96701.53
2023-05-06T08:44:17.399Z,96702.34
2023-05-06T08:46:18.989Z,96698.09
2023-05-06T08:48:20.770Z,96709.25
2023-05-06T08:50:22.508Z,96705.47
2023-05-06T08:52:44.278Z,96707.59
2023-05-06T08:54:46.089Z,96709.03
2023-05-06T08:56:51.646Z,96716.72
2023-05-06T08:58:53.980Z,96711.72
2023-05-06T09:00:57.498Z,96716.97
2023-05-06T09:02:59.025Z,96713.03
2023-05-06T09:05:01.208Z,96710.72
2023-05-06T09:07:02.651Z,96699.06
2023-05-06T09:09:04.159Z,96709.44
2023-05-06T09:11:19.376Z,96711.22
2023-05-06T09:13:20.932Z,96707.97
2023-05-06T09:15:24.289Z,96707.88
2023-05-06T09:17:30.674Z,96703.75
2023-05-06T09:19:32.167Z,96706.25
2023-05-06T09:21:35.219Z,96706.78
2023-05-06T09:23:37.014Z,96698.66
2023-05-06T09:25:39.072Z,96691.00
2023-05-06T09:27:40.712Z,96697.53
2023-05-06T09:29:59.985Z,96689.06
2023-05-06T09:32:05.024Z,96693.97
2023-05-06T09:34:08.280Z,96691.97
2023-05-06T09:36:09.831Z,96695.94
2023-05-06T09:38:11.289Z,96683.78
2023-05-06T09:40:13.688Z,96673.22
2023-05-06T09:42:16.363Z,96674.63
2023-05-06T09:44:17.932Z,96679.78
2023-05-06T09:46:19.575Z,96684.72
2023-05-06T09:48:22.226Z,96676.50
2023-05-06T09:50:25.409Z,96681.44
2023-05-06T09:52:27.445Z,96672.88
2023-05-06T09:54:29.229Z,96675.34
2023-05-06T09:56:31.414Z,96675.09
2023-05-06T09:58:33.956Z,96677.22
2023-05-06T10:00:36.504Z,96675.78
2023-05-06T10:02:40.123Z,96665.72
2023-05-06T10:04:42.682Z,96671.13
2023-05-06T10:06:49.538Z,96668.66
2023-05-06T10:08:52.467Z,96665.47
2023-05-06T10:10:54.881Z,96673.25
2023-05-06T10:12:56.573Z,96661.75
2023-05-06T10:14:58.128Z,96663.50
2023-05-06T10:17:00.740Z,96665.59
2023-05-06T10:19:04.714Z,96665.00
2023-05-06T10:21:13.809Z,96662.22
2023-05-06T10:23:23.745Z,96660.22
2023-05-06T10:25:33.555Z,96660.09
2023-05-06T10:27:40.237Z,96641.09
2023-05-06T10:29:43.507Z,96650.38
2023-05-06T10:31:52.055Z,96648.13
2023-05-06T10:33:54.693Z,96645.16
2023-05-06T10:36:07.049Z,96646.16
2023-05-06T10:38:12.451Z,96637.34
2023-05-06T10:40:15.775Z,96633.72
2023-05-06T10:42:17.322Z,96632.53
2023-05-06T10:44:57.443Z,96629.47
2023-05-06T10:46:59.388Z,96627.47
2023-05-06T10:49:16.505Z,96618.66
2023-05-06T10:51:25.705Z,96624.59
2023-05-06T10:53:58.056Z,96620.69
2023-05-06T10:56:08.173Z,96620.38
2023-05-06T10:58:13.870Z,96614.22
2023-05-06T11:00:16.303Z,96611.28
2023-05-06T11:02:20.572Z,96614.38
2023-05-06T11:04:22.690Z,96611.78
2023-05-06T11:06:38.220Z,96604.16
2023-05-06T11:08:39.775Z,96600.66
2023-05-06T11:10:41.383Z,96599.66
2023-05-06T11:12:49.263Z,96589.31
2023-05-06T11:14:51.053Z,96606.91
2023-05-06T11:19:03.326Z,96603.75
2023-05-06T11:21:36.734Z,96611.78
2023-05-06T11:24:12.268Z,96614.16
2023-05-06T11:26:14.061Z,96607.50
2023-05-06T11:28:16.899Z,96601.53
2023-05-06T11:30:18.364Z,96602.41
2023-05-06T11:32:22.861Z,96604.25
2023-05-06T11:34:26.717Z,96606.78
2023-05-06T11:36:28.260Z,96600.03
2023-05-06T11:38:41.315Z,96565.78
2023-05-06T11:50:31.558Z,96606.00
2023-05-06T11:52:33.121Z,96612.81
2023-05-06T11:54:35.786Z,96601.25
2023-05-06T11:56:48.443Z,96603.84
2023-05-06T11:58:49.938Z,96594.03
2023-05-06T12:00:54.493Z,96604.47
2023-05-06T12:02:56.461Z,96597.28
2023-05-06T12:04:58.152Z,96604.34
2023-05-06T12:07:01.131Z,96604.25
2023-05-06T12:09:03.818Z,96603.66
2023-05-06T12:11:07.030Z,96601.59
2023-05-06T12:13:08.845Z,96599.91
2023-05-06T12:15:12.020Z,96589.50
2023-05-06T12:17:13.790Z,96591.22
2023-05-06T12:19:18.512Z,96597.84
2023-05-06T12:21:23.327Z,96591.81
2023-05-06T12:23:26.201Z,96592.47
2023-05-06T12:25:27.786Z,96588.69
2023-05-06T12:27:32.952Z,96584.44
2023-05-06T12:29:34.615Z,96595.09
2023-05-06T12:31:36.747Z,96588.25
2023-05-06T12:33:44.916Z,96586.28
2023-05-06T12:35:46.438Z,96585.72
2023-05-06T12:37:47.975Z,96588.56
2023-05-06T12:39:50.858Z,96584.44
2023-05-06T12:41:52.360Z,96579.88
2023-05-06T12:43:53.885Z,96568.50
2023-05-06T12:46:03.942Z,96584.06
2023-05-06T12:48:06.295Z,96583.72
2023-05-06T12:50:08.494Z,96582.50
2023-05-06T12:52:10.465Z,96586.84
2023-05-06T12:54:29.969Z,96583.06
2023-05-06T12:56:32.793Z,96590.81
2023-05-06T12:58:34.272Z,96582.06
2023-05-06T13:00:35.736Z,96580.75
2023-05-06T13:02:37.293Z,96575.53
2023-05-06T13:04:38.900Z,96576.78
2023-05-06T13:06:40.425Z,96572.31
2023-05-06T13:08:41.905Z,96569.53
2023-05-06T13:10:43.371Z,96561.75
2023-05-06T13:12:46.225Z,96562.53
2023-05-06T13:14:47.703Z,96565.97
2023-05-06T13:16:49.554Z,96554.38
2023-05-06T13:18:51.036Z,96548.41
2023-05-06T13:20:52.496Z,96548.59
2023-05-06T13:22:55.143Z,96544.31
2023-05-06T13:24:56.866Z,96538.28
2023-05-06T13:26:58.424Z,96542.59
2023-05-06T13:29:01.626Z,96536.22
2023-05-06T13:31:03.603Z,96516.75
2023-05-06T13:33:05.239Z,96523.69
2023-05-06T13:35:14.109Z,96519.38
2023-05-06T13:37:37.221Z,96520.72
2023-05-06T13:39:38.696Z,96523.50
2023-05-06T13:41:40.204Z,96525.41
2023-05-06T13:43:41.808Z,96526.25
2023-05-06T13:45:44.650Z,96526.13
2023-05-06T13:47:46.190Z,96521.19
2023-05-06T13:49:47.793Z,96519.09
2023-05-06T13:54:35.678Z,96512.50
2023-05-06T13:56:37.206Z,96513.28
2023-05-06T13:58:38.678Z,96508.16
2023-05-06T14:00:40.176Z,96505.84
2023-05-06T14:02:43.084Z,96499.63
2023-05-06T14:04:44.651Z,96504.47
2023-05-06T14:06:46.220Z,96507.44
2023-05-06T14:18:33.805Z,96499.09
2023-05-06T14:20:35.376Z,96494.22
2023-05-06T14:22:37.180Z,96495.31
2023-05-06T14:24:38.657Z,96485.53
2023-05-06T14:26:40.183Z,96479.53
2023-05-06T14:28:41.727Z,96488.78
2023-05-06T14:30:43.903Z,96484.97
2023-05-06T14:32:45.488Z,96489.50
2023-05-06T14:34:48.376Z,96483.72
2023-05-06T14:36:49.915Z,96478.38
2023-05-06T14:38:51.390Z,96478.25
2023-05-06T14:40:52.940Z,96480.75
2023-05-06T14:42:54.433Z,96476.69
2023-05-06T14:44:55.952Z,96469.53
2023-05-06T14:46:57.472Z,96482.09
2023-05-06T14:48:58.911Z,96480.56
2023-05-06T14:51:01.722Z,96472.13
2023-05-06T14:53:04.047Z,96470.06
2023-05-06T14:55:07.989Z,96475.47
2023-05-06T14:57:09.847Z,96465.78
2023-05-06T14:59:11.444Z,96474.47
2023-05-06T15:01:13.047Z,96469.44
2023-05-06T15:03:14.546Z,96468.16
2023-05-06T15:05:16.118Z,96470.53
2023-05-06T15:07:19.032Z,96463.59
2023-05-06T15:09:20.531Z,96463.41
2023-05-06T15:11:22.002Z,96466.94
2023-05-06T15:13:23.587Z,96459.88
2023-05-06T15:15:25.104Z,96460.13
2023-05-06T15:17:26.601Z,96458.22
2023-05-06T15:19:28.110Z,96458.84
2023-05-06T15:21:29.741Z,96462.38
2023-05-06T15:23:32.580Z,96462.75
2023-05-06T15:25:36.206Z,96463.00
2023-05-06T15:27:38.249Z,96465.59
2023-05-06T15:29:39.792Z,96465.53
2023-05-06T15:31:43.670Z,96462.78
2023-05-06T15:33:45.173Z,96463.41
2023-05-06T15:35:46.701Z,96466.44
2023-05-06T15:37:48.244Z,96471.13
2023-05-06T15:39:51.090Z,96468.16
2023-05-06T15:41:52.594Z,96472.09
2023-05-06T15:43:54.806Z,96472.13
2023-05-06T15:45:57.181Z,96476.69
2023-05-06T15:48:00.429Z,96471.78
2023-05-06T15:50:03.619Z,96465.91
2023-05-06T15:52:12.618Z,96465.91
2023-05-06T15:54:16.268Z,96462.75
2023-05-06T15:56:19.156Z,96464.97
2023-05-06T15:58:20.749Z,96462.78
2023-05-06T16:00:22.525Z,96460.00
2023-05-06T16:02:27.123Z,96469.94
2023-05-06T16:04:34.479Z,96461.41
2023-05-06T16:06:36.112Z,96452.84
2023-05-06T16:08:38.175Z,96461.41
2023-05-06T16:10:39.842Z,96459.47
2023-05-06T16:12:42.726Z,96461.34
2023-05-06T16:14:44.316Z,96463.09
2023-05-06T16:16:45.967Z,96447.78
2023-05-06T16:18:47.474Z,96456.69
2023-05-06T16:20:48.940Z,96455.78
2023-05-06T16:22:50.745Z,96447.47
2023-05-06T16:24:52.248Z,96447.72
2023-05-06T16:26:55.533Z,96452.16
2023-05-06T16:28:58.391Z,96446.88
2023-05-06T16:31:01.863Z,96447.56
2023-05-06T16:33:03.585Z,96454.00
2023-05-06T16:35:05.643Z,96449.50
2023-05-06T16:37:07.135Z,96454.09
2023-05-06T16:39:08.621Z,96448.44
2023-05-06T16:41:10.090Z,96448.28
2023-05-06T16:43:11.594Z,96450.19
2023-05-06T16:45:14.926Z,96456.50
2023-05-06T16:47:16.593Z,96441.28
2023-05-06T16:49:18.311Z,96444.53
2023-05-06T16:51:19.811Z,96435.63
2023-05-06T16:53:21.285Z,96445.03
2023-05-06T16:55:22.997Z,96445.44
2023-05-06T16:57:24.598Z,96437.84
2023-05-06T16:59:26.127Z,96435.63
2023-05-06T17:01:29.076Z,96443.44
2023-05-06T17:03:30.721Z,96444.41
2023-05-06T17:05:32.218Z,96436.88
2023-05-06T17:07:33.784Z,96437.13
2023-05-06T17:09:35.262Z,96435.28
2023-05-06T17:11:36.755Z,96432.47
2023-05-06T17:13:38.221Z,96416.38
2023-05-06T17:15:39.736Z,96416.41
2023-05-06T17:17:42.944Z,96424.38
2023-05-06T17:19:44.471Z,96428.56
2023-05-06T17:21:45.991Z,96419.75
2023-05-06T17:23:47.493Z,96423.44
2023-05-06T17:25:49.012Z,96426.09
2023-05-06T17:27:50.473Z,96412.44
2023-05-06T17:29:52.000Z,96423.50
2023-05-06T17:31:53.736Z,96427.91
2023-05-06T17:33:56.681Z,96418.91
2023-05-06T17:35:58.149Z,96421.38
2023-05-06T17:37:59.854Z,96400.13
2023-05-06T17:40:01.982Z,96417.59
2023-05-06T17:42:04.155Z,96418.03
2023-05-06T17:44:05.832Z,96424.00
2023-05-06T17:46:07.396Z,96421.56
2023-05-06T17:48:09.219Z,96421.72
2023-05-06T17:50:12.443Z,96414.69
2023-05-06T17:52:14.040Z,96418.53
2023-05-06T17:54:15.515Z,96418.31
2023-05-06T17:56:17.159Z,96388.28
2023-05-06T17:58:18.778Z,96427.47
2023-05-06T18:00:20.921Z,96427.38
2023-05-06T18:02:22.584Z,96432.53
2023-05-06T18:04:24.359Z,96427.78
2023-05-06T18:06:27.266Z,96431.72
2023-05-06T18:08:28.731Z,96430.25
2023-05-06T18:10:33.501Z,96431.88
2023-05-06T18:12:35.046Z,96433.34
2023-05-06T18:14:36.788Z,96431.88
2023-05-06T18:16:38.634Z,96434.66
2023-05-06T18:18:41.986Z,96433.03
2023-05-06T18:20:43.486Z,96446.84
2023-05-06T18:22:46.548Z,96436.03
2023-05-06T18:24:48.022Z,96439.06
2023-05-06T18:26:49.501Z,96439.25
2023-05-06T18:28:50.993Z,96447.03
2023-05-06T18:30:52.733Z,96451.84
2023-05-06T18:32:56.503Z,96454.59
2023-05-06T18:34:58.427Z,96456.88
2023-05-06T18:36:59.935Z,96456.63
2023-05-06T18:39:05.537Z,96462.25
2023-05-06T18:41:06.999Z,96427.13
2023-05-06T18:43:10.137Z,96464.09
2023-05-06T18:45:12.050Z,96461.31
2023-05-06T18:47:13.866Z,96461.69
2023-05-06T18:49:15.406Z,96463.25
2023-05-06T18:51:17.466Z,96447.94
2023-05-06T18:53:18.969Z,96465.34
2023-05-06T18:55:21.974Z,96466.97
2023-05-06T18:57:23.511Z,96469.63
2023-05-06T18:59:25.680Z,96476.16
2023-05-06T19:01:27.380Z,96468.38
2023-05-06T19:03:28.975Z,96471.13
2023-05-06T19:05:30.471Z,96472.09
2023-05-06T19:07:32.202Z,96475.50
2023-05-06T19:09:33.655Z,96486.78
2023-05-06T19:11:36.705Z,96477.72
2023-05-06T19:13:38.221Z,96482.91
2023-05-06T19:15:39.733Z,96485.53
2023-05-06T19:17:41.246Z,96488.34
2023-05-06T19:19:42.776Z,96483.75
2023-05-06T19:21:44.275Z,96480.97
2023-05-06T19:23:45.781Z,96488.81
2023-05-06T19:25:47.320Z,96482.59
2023-05-06T19:27:50.145Z,96490.28
2023-05-06T19:29:51.768Z,96492.94
2023-05-06T19:31:53.271Z,96494.34
2023-05-06T19:33:54.808Z,96495.28
2023-05-06T19:35:56.370Z,96472.63
2023-05-06T19:37:57.894Z,96495.59
2023-05-06T19:39:59.618Z,96489.06
2023-05-06T19:42:01.310Z,96487.75
2023-05-06T19:44:04.440Z,96493.59
2023-05-06T19:46:05.945Z,96497.56
2023-05-06T19:48:07.733Z,96495.22
2023-05-06T19:50:10.249Z,96493.72
2023-05-06T19:52:11.994Z,96496.03
2023-05-06T19:54:24.380Z,96485.50
2023-05-06T19:56:26.072Z,96492.78
2023-05-06T19:58:27.748Z,96489.84
2023-05-06T20:00:30.996Z,96498.84
2023-05-06T20:02:32.889Z,96501.53
2023-05-06T20:04:34.702Z,96493.81
2023-05-06T20:06:36.242Z,96483.50
2023-05-06T20:08:37.958Z,96489.94
2023-05-06T20:10:39.732Z,96487.72
2023-05-06T20:12:41.308Z,96483.09
2023-05-06T20:14:42.812Z,96492.22
2023-05-06T20:16:45.893Z,96488.34
2023-05-06T20:18:47.483Z,96490.00
2023-05-06T20:20:49.022Z,96489.88
2023-05-06T20:22:50.497Z,96487.75
2023-05-06T20:24:52.161Z,96490.75
2023-05-06T20:26:56.311Z,96497.41
2023-05-06T20:28:57.947Z,96484.88
2023-05-06T20:30:59.462Z,96490.84
2023-05-06T20:33:02.594Z,96487.56
2023-05-06T20:35:09.254Z,96493.78
2023-05-06T20:37:11.036Z,96487.66
2023-05-06T20:39:12.625Z,96492.59
2023-05-06T20:41:14.160Z,96501.47
2023-05-06T20:43:15.943Z,96491.78
2023-05-06T20:45:17.527Z,96498.88
2023-05-06T20:47:19.730Z,96491.59
2023-05-06T20:49:22.789Z,96492.50
2023-05-06T20:51:24.506Z,96491.31
2023-05-06T20:53:26.034Z,96485.94
2023-05-06T20:55:27.622Z,96485.59
2023-05-06T20:57:29.451Z,96490.00
2023-05-06T20:59:30.941Z,96490.50
2023-05-06T21:01:32.716Z,96490.28
2023-05-06T21:03:34.415Z,96485.81
2023-05-06T21:05:37.284Z,96485.66
2023-05-06T21:07:38.834Z,96488.22
2023-05-06T21:09:40.360Z,96482.69
2023-05-06T21:11:41.907Z,96481.97
2023-05-06T21:13:43.398Z,96477.47
2023-05-06T21:15:44.880Z,96471.75
2023-05-06T21:17:46.533Z,96475.69
2023-05-06T21:19:48.073Z,96481.22
2023-05-06T21:21:50.977Z,96476.09
2023-05-06T21:23:52.502Z,96482.97
2023-05-06T21:25:54.030Z,96482.59
2023-05-06T21:27:55.518Z,96485.72
2023-05-06T21:29:57.014Z,96481.47
2023-05-06T21:31:58.517Z,96493.41
2023-05-06T21:34:00.008Z,96485.81
2023-05-06T21:36:01.525Z,96480.13
2023-05-06T21:38:04.419Z,96478.47
2023-05-06T21:40:06.894Z,96476.44
2023-05-06T21:42:08.450Z,96481.22
2023-05-06T21:44:10.087Z,96476.78
2023-05-06T21:46:11.608Z,96475.59
2023-05-06T21:48:13.141Z,96475.59
2023-05-06T21:50:15.196Z,96474.81
2023-05-06T21:52:16.702Z,96480.63
2023-05-06T21:54:19.533Z,96463.34
2023-05-06T21:56:21.056Z,96475.56
2023-05-06T21:58:22.559Z,96474.56
2023-05-06T22:00:24.155Z,96473.81
2023-05-06T22:02:25.931Z,96469.31
2023-05-06T22:04:27.843Z,96472.81
2023-05-06T22:06:29.336Z,96464.00
2023-05-06T22:08:31.048Z,96472.66
2023-05-06T22:10:33.870Z,96473.13
2023-05-06T22:12:35.404Z,96469.41
2023-05-06T22:14:41.273Z,96462.00
2023-05-06T22:16:43.357Z,96467.63
2023-05-06T22:18:52.577Z,96462.75
2023-05-06T22:20:55.363Z,96476.75
2023-05-06T22:22:56.936Z,96477.41
2023-05-06T22:24:59.906Z,96475.75
2023-05-06T22:27:02.812Z,96485.22
2023-05-06T22:29:04.293Z,96475.38
2023-05-06T22:31:05.813Z,96481.97
2023-05-06T22:33:07.427Z,96479.94
2023-05-06T22:35:09.662Z,96481.59
2023-05-06T22:37:11.283Z,96485.31
2023-05-06T22:39:12.839Z,96485.72
2023-05-06T22:41:14.329Z,96484.09
2023-05-06T22:43:17.184Z,96479.16
2023-05-06T22:45:18.924Z,96476.31
2023-05-06T22:47:20.733Z,96476.94
2023-05-06T22:49:22.291Z,96483.13
2023-05-06T22:51:23.844Z,96472.63
2023-05-06T22:53:25.390Z,96472.84
2023-05-06T22:55:26.885Z,96473.44
2023-05-06T22:57:28.389Z,96467.66
2023-05-06T22:59:31.259Z,96459.88
2023-05-06T23:01:33.254Z,96468.94
2023-05-06T23:03:35.402Z,96445.13
2023-05-06T23:05:36.955Z,96468.38
2023-05-06T23:07:38.517Z,96465.03
2023-05-06T23:09:40.025Z,96466.50
2023-05-06T23:11:41.880Z,96473.09
2023-05-06T23:13:43.380Z,96474.78
2023-05-06T23:15:46.216Z,96462.03
2023-05-06T23:17:47.774Z,96472.31
2023-05-06T23:19:49.318Z,96480.34
2023-05-06T23:21:50.837Z,96479.72
2023-05-06T23:23:52.318Z,96471.50
2023-05-06T23:25:53.823Z,96459.16
2023-05-06T23:27:55.320Z,96462.91
2023-05-06T23:29:56.854Z,96467.81
2023-05-06T23:31:59.715Z,96470.72
2023-05-06T23:34:01.322Z,96464.94
2023-05-06T23:36:02.891Z,96473.59
2023-05-06T23:38:04.419Z,96478.75
2023-05-06T23:40:07.325Z,96469.91
2023-05-06T23:42:08.823Z,96464.16
2023-05-06T23:44:10.317Z,96471.13
2023-05-06T23:46:11.894Z,96467.03
2023-05-06T23:48:14.781Z,96460.44
2023-05-06T23:50:16.392Z,96460.03
2023-05-06T23:52:17.889Z,96460.88
2023-05-06T23:54:19.445Z,96460.25
2023-05-06T23:56:20.936Z,96450.19
2023-05-06T23:58:22.496Z,96458.22
